createdAt,value
2019-01-31T00:01:25.192Z,93830.56
2019-01-31T00:04:55.047Z,93829.37
2019-01-31T00:08:46.087Z,93827.53
2019-01-31T00:11:47.819Z,93821.32
2019-01-31T00:14:50.751Z,93818.41
2019-01-31T00:18:18.890Z,93815.11
2019-01-31T00:21:12.487Z,93816.46
2019-01-31T00:24:35.198Z,93813.75
2019-01-31T00:28:09.159Z,93816.17
2019-01-31T00:31:37.101Z,93811.83
2019-01-31T00:34:54.399Z,93807.42
2019-01-31T00:38:26.069Z,93812.55
2019-01-31T00:41:33.367Z,93808.28
2019-01-31T00:44:31.446Z,93804.58
2019-01-31T00:48:00.123Z,93805.85
2019-01-31T00:51:04.457Z,93810.09
2019-01-31T00:54:32.173Z,93804.47
2019-01-31T00:57:46.499Z,93804.82
2019-01-31T01:01:18.457Z,93800.97
2019-01-31T01:04:47.766Z,93799.83
2019-01-31T01:08:25.592Z,93806.47
2019-01-31T01:11:29.867Z,93800.52
2019-01-31T01:14:28.781Z,93786.34
2019-01-31T01:17:28.187Z,93796.09
2019-01-31T01:20:41.240Z,93795.06
2019-01-31T01:23:59.150Z,93803.77
2019-01-31T01:27:21.702Z,93799.75
2019-01-31T01:30:52.018Z,93804.09
2019-01-31T01:34:24.151Z,93803.22
2019-01-31T01:37:18.911Z,93801.73
2019-01-31T01:40:24.603Z,93800.53
2019-01-31T01:43:56.658Z,93798.49
2019-01-31T01:47:11.166Z,93807.62
2019-01-31T01:49:54.614Z,93801.16
2019-01-31T01:52:56.773Z,93796.42
2019-01-31T01:56:16.339Z,93794.27
2019-01-31T01:59:25.069Z,93791.44
2019-01-31T02:03:08.887Z,93783.20
2019-01-31T02:06:48.466Z,93790.27
2019-01-31T02:09:56.404Z,93783.91
2019-01-31T02:13:32.238Z,93780.48
2019-01-31T02:17:00.396Z,93774.60
2019-01-31T02:20:30.076Z,93762.58
2019-01-31T02:24:11.458Z,93765.12
2019-01-31T02:27:42.128Z,93752.30
2019-01-31T02:31:19.766Z,93752.37
2019-01-31T02:34:31.668Z,93748.28
2019-01-31T02:37:41.314Z,93740.05
2019-01-31T02:40:45.525Z,93737.84
2019-01-31T02:44:41.418Z,93739.17
2019-01-31T02:48:42.516Z,93730.82
2019-01-31T02:52:01.560Z,93729.00
2019-01-31T02:55:39.048Z,93729.41
2019-01-31T02:58:53.722Z,93726.76
2019-01-31T03:02:17.919Z,93724.60
2019-01-31T03:05:30.313Z,93713.53
2019-01-31T03:08:32.983Z,93710.38
2019-01-31T03:11:38.034Z,93706.70
2019-01-31T03:14:48.792Z,93703.05
2019-01-31T03:18:20.421Z,93699.23
2019-01-31T03:21:24.942Z,93697.23
2019-01-31T03:24:58.334Z,93698.27
2019-01-31T03:28:01.775Z,93699.03
2019-01-31T03:31:28.157Z,93696.45
2019-01-31T03:35:02.725Z,93690.42
2019-01-31T03:38:37.695Z,93690.14
2019-01-31T03:41:46.232Z,93684.61
2019-01-31T03:44:50.222Z,93685.16
2019-01-31T03:48:26.128Z,93681.45
2019-01-31T03:51:40.867Z,93678.14
2019-01-31T03:55:18.788Z,93679.31
2019-01-31T03:58:30.992Z,93678.01
2019-01-31T04:02:00.709Z,93670.61
2019-01-31T04:05:03.056Z,93664.05
2019-01-31T04:07:34.502Z,93659.30
2019-01-31T04:10:18.372Z,93660.33
2019-01-31T04:12:40.616Z,93651.94
2019-01-31T04:15:12.170Z,93652.82
2019-01-31T04:17:43.612Z,93651.28
2019-01-31T04:20:15.138Z,93646.88
2019-01-31T04:22:46.578Z,93646.23
2019-01-31T04:25:18.007Z,93645.41
2019-01-31T04:27:49.465Z,93646.09
2019-01-31T04:30:21.020Z,93640.14
2019-01-31T04:32:52.489Z,93641.02
2019-01-31T04:35:23.930Z,93637.52
2019-01-31T04:37:55.374Z,93641.64
2019-01-31T04:40:31.429Z,93644.94
2019-01-31T04:42:59.952Z,93643.40
2019-01-31T04:45:31.380Z,93643.50
2019-01-31T04:48:04.506Z,93643.47
2019-01-31T04:50:35.930Z,93640.48
2019-01-31T04:53:07.301Z,93639.11
2019-01-31T04:55:38.715Z,93643.80
2019-01-31T04:58:10.284Z,93643.95
2019-01-31T05:00:41.808Z,93642.63
2019-01-31T05:03:13.259Z,93647.37
2019-01-31T05:05:44.689Z,93651.87
2019-01-31T05:08:16.127Z,93648.01
2019-01-31T05:10:47.554Z,93651.47
2019-01-31T05:13:19.007Z,93646.03
2019-01-31T05:15:50.455Z,93648.32
2019-01-31T05:18:21.967Z,93644.23
2019-01-31T05:20:53.454Z,93653.75
2019-01-31T05:23:24.900Z,93650.64
2019-01-31T05:25:56.334Z,93657.99
2019-01-31T05:28:27.755Z,93653.73
2019-01-31T05:30:59.197Z,93650.05
2019-01-31T05:33:30.628Z,93650.77
2019-01-31T05:36:02.068Z,93651.27
2019-01-31T05:38:33.537Z,93656.00
2019-01-31T05:41:04.989Z,93649.08
2019-01-31T05:43:36.432Z,93648.48
2019-01-31T05:46:07.882Z,93646.80
2019-01-31T05:48:39.337Z,93649.66
2019-01-31T05:51:10.783Z,93643.27
2019-01-31T05:53:42.266Z,93646.27
2019-01-31T05:56:13.703Z,93646.39
2019-01-31T05:58:45.162Z,93640.12
2019-01-31T06:01:16.674Z,93643.00
2019-01-31T06:03:48.222Z,93639.39
2019-01-31T06:06:19.769Z,93645.56
2019-01-31T06:08:51.258Z,93645.31
2019-01-31T06:11:22.697Z,93646.56
2019-01-31T06:13:54.178Z,93646.40
2019-01-31T06:16:25.643Z,93657.29
2019-01-31T06:18:57.130Z,93653.12
2019-01-31T06:21:28.569Z,93656.11
2019-01-31T06:24:00.049Z,93660.28
2019-01-31T06:26:31.480Z,93651.06
2019-01-31T06:29:03.001Z,93655.11
2019-01-31T06:31:34.417Z,93651.30
2019-01-31T06:34:06.001Z,93663.71
2019-01-31T06:36:37.378Z,93663.26
2019-01-31T06:39:10.259Z,93661.73
2019-01-31T06:41:41.687Z,93669.34
2019-01-31T06:44:13.172Z,93666.97
2019-01-31T06:46:44.624Z,93664.99
2019-01-31T06:49:16.135Z,93673.95
2019-01-31T06:51:47.573Z,93673.13
2019-01-31T06:54:19.091Z,93668.08
2019-01-31T06:56:51.608Z,93674.14
2019-01-31T06:59:23.091Z,93679.83
2019-01-31T07:01:54.564Z,93681.30
2019-01-31T07:04:26.157Z,93675.41
2019-01-31T07:06:57.625Z,93672.05
2019-01-31T07:09:29.165Z,93671.92
2019-01-31T07:12:00.601Z,93660.89
2019-01-31T07:14:33.773Z,93650.06
2019-01-31T07:17:05.266Z,93653.07
2019-01-31T07:19:36.693Z,93648.00
2019-01-31T07:22:08.143Z,93649.04
2019-01-31T07:24:39.605Z,93644.87
2019-01-31T07:27:11.229Z,93644.78
2019-01-31T07:29:43.938Z,93643.17
2019-01-31T07:32:15.381Z,93654.50
2019-01-31T07:34:46.820Z,93654.34
2019-01-31T07:37:18.298Z,93661.86
2019-01-31T07:39:49.764Z,93652.05
2019-01-31T07:42:21.216Z,93658.09
2019-01-31T07:44:53.095Z,93656.52
2019-01-31T07:47:24.515Z,93661.47
2019-01-31T07:49:56.074Z,93668.42
2019-01-31T07:52:27.534Z,93670.92
2019-01-31T07:55:01.898Z,93652.26
2019-01-31T07:57:32.211Z,93663.49
2019-01-31T08:00:04.787Z,93661.52
2019-01-31T08:02:36.196Z,93658.20
2019-01-31T08:05:11.089Z,93667.00
2019-01-31T08:07:43.673Z,93660.33
2019-01-31T08:10:19.085Z,93655.88
2019-01-31T08:12:50.649Z,93646.96
2019-01-31T08:15:22.114Z,93646.53
2019-01-31T08:17:53.569Z,93653.00
2019-01-31T08:20:25.103Z,93651.22
2019-01-31T08:22:56.521Z,93670.25
2019-01-31T08:25:28.121Z,93657.39
2019-01-31T08:27:59.967Z,93659.28
2019-01-31T08:30:37.785Z,93658.50
2019-01-31T08:33:08.543Z,93659.81
2019-01-31T08:35:40.112Z,93652.72
2019-01-31T08:38:11.823Z,93640.75
2019-01-31T08:40:43.587Z,93643.09
2019-01-31T08:43:15.025Z,93643.35
2019-01-31T08:45:46.594Z,93647.35
2019-01-31T08:48:18.067Z,93643.19
2019-01-31T08:50:49.563Z,93645.90
2019-01-31T08:53:21.006Z,93644.13
2019-01-31T08:55:52.539Z,93654.61
2019-01-31T08:58:23.992Z,93655.30
2019-01-31T09:00:55.440Z,93656.92
2019-01-31T09:03:27.022Z,93659.14
2019-01-31T09:05:58.578Z,93656.09
2019-01-31T09:08:30.138Z,93651.48
2019-01-31T09:11:01.614Z,93645.88
2019-01-31T09:13:33.223Z,93642.98
2019-01-31T09:16:06.930Z,93649.94
2019-01-31T09:18:38.380Z,93669.23
2019-01-31T09:21:47.379Z,93665.23
2019-01-31T09:25:13.986Z,93660.13
2019-01-31T09:28:36.050Z,93661.95
2019-01-31T09:31:47.229Z,93671.20
2019-01-31T09:35:19.665Z,93640.33
2019-01-31T09:38:50.212Z,93645.39
2019-01-31T09:42:33.751Z,93639.61
2019-01-31T09:45:37.420Z,93647.92
2019-01-31T09:48:44.235Z,93654.11
2019-01-31T09:52:09.016Z,93648.66
2019-01-31T09:55:44.362Z,93639.86
2019-01-31T09:58:30.380Z,93645.73
2019-01-31T10:02:14.445Z,93645.73
2019-01-31T10:05:10.325Z,93651.06
2019-01-31T10:08:05.422Z,93647.70
2019-01-31T10:11:36.745Z,93647.29
2019-01-31T10:14:50.209Z,93642.98
2019-01-31T10:18:09.160Z,93646.16
2019-01-31T10:21:14.457Z,93640.80
2019-01-31T10:24:45.483Z,93641.33
2019-01-31T10:28:12.929Z,93638.55
2019-01-31T10:31:52.558Z,93633.83
2019-01-31T10:35:33.162Z,93629.69
2019-01-31T10:38:59.559Z,93635.00
2019-01-31T10:42:30.340Z,93641.06
2019-01-31T10:45:48.874Z,93625.83
2019-01-31T10:49:11.832Z,93631.03
2019-01-31T10:52:58.549Z,93632.37
2019-01-31T10:56:34.825Z,93619.58
2019-01-31T10:59:59.979Z,93624.89
2019-01-31T11:03:18.818Z,93616.27
2019-01-31T11:06:34.220Z,93623.23
2019-01-31T11:09:53.268Z,93610.66
2019-01-31T11:13:27.236Z,93620.95
2019-01-31T11:16:26.420Z,93609.16
2019-01-31T11:19:38.558Z,93619.20
2019-01-31T11:22:48.818Z,93619.46
2019-01-31T11:26:44.752Z,93612.19
2019-01-31T11:30:01.365Z,93601.11
2019-01-31T11:33:29.403Z,93592.66
2019-01-31T11:36:42.617Z,93590.01
2019-01-31T11:39:41.992Z,93588.08
2019-01-31T11:42:58.260Z,93590.10
2019-01-31T11:46:22.557Z,93587.98
2019-01-31T11:49:31.098Z,93589.53
2019-01-31T11:52:32.037Z,93585.79
2019-01-31T11:56:15.654Z,93592.11
2019-01-31T11:58:53.410Z,93594.24
2019-01-31T12:01:24.956Z,93602.05
2019-01-31T12:04:12.744Z,93590.97
2019-01-31T12:06:44.204Z,93588.75
2019-01-31T12:09:21.516Z,93584.33
2019-01-31T12:11:53.558Z,93583.43
2019-01-31T12:14:24.977Z,93581.29
2019-01-31T12:16:56.409Z,93579.25
2019-01-31T12:19:27.892Z,93577.96
2019-01-31T12:21:59.320Z,93577.42
2019-01-31T12:24:30.844Z,93572.58
2019-01-31T12:27:02.374Z,93573.36
2019-01-31T12:29:33.868Z,93563.04
2019-01-31T12:32:05.317Z,93558.67
2019-01-31T12:34:36.738Z,93558.56
2019-01-31T12:37:08.220Z,93553.71
2019-01-31T12:39:39.621Z,93549.95
2019-01-31T12:42:11.105Z,93540.64
2019-01-31T12:44:42.715Z,93541.42
2019-01-31T12:47:14.158Z,93534.03
2019-01-31T12:49:45.670Z,93532.70
2019-01-31T12:52:17.127Z,93530.84
2019-01-31T12:54:48.589Z,93531.69
2019-01-31T12:57:20.217Z,93533.17
2019-01-31T12:59:51.670Z,93529.46
2019-01-31T13:02:23.123Z,93523.74
2019-01-31T13:04:56.174Z,93524.98
2019-01-31T13:07:27.759Z,93509.06
2019-01-31T13:09:59.216Z,93511.70
2019-01-31T13:12:30.712Z,93513.19
2019-01-31T13:15:02.557Z,93514.05
2019-01-31T13:17:34.639Z,93513.67
2019-01-31T13:20:13.895Z,93508.34
2019-01-31T13:22:45.410Z,93513.05
2019-01-31T13:25:18.297Z,93505.62
2019-01-31T13:27:49.771Z,93504.69
2019-01-31T13:30:22.282Z,93498.89
2019-01-31T13:32:55.533Z,93495.80
2019-01-31T13:35:27.002Z,93500.47
2019-01-31T13:37:58.536Z,93496.84
2019-01-31T13:40:29.947Z,93502.38
2019-01-31T13:43:01.547Z,93502.52
2019-01-31T13:45:38.231Z,93504.24
2019-01-31T13:48:13.505Z,93502.92
2019-01-31T13:50:45.083Z,93497.69
2019-01-31T13:53:16.588Z,93495.17
2019-01-31T13:55:48.163Z,93498.52
2019-01-31T13:58:20.545Z,93496.03
2019-01-31T14:00:51.991Z,93498.56
2019-01-31T14:03:23.921Z,93494.89
2019-01-31T14:05:55.383Z,93498.02
2019-01-31T14:08:26.877Z,93499.69
2019-01-31T14:10:58.331Z,93485.67
2019-01-31T14:13:29.858Z,93483.80
2019-01-31T14:16:01.401Z,93480.88
2019-01-31T14:18:34.004Z,93486.70
2019-01-31T14:21:05.485Z,93495.42
2019-01-31T14:23:37.178Z,93494.85
2019-01-31T14:26:08.599Z,93499.61
2019-01-31T14:28:40.074Z,93505.56
2019-01-31T14:31:11.556Z,93504.71
2019-01-31T14:33:43.098Z,93496.42
2019-01-31T14:36:14.531Z,93491.85
2019-01-31T14:38:46.095Z,93488.61
2019-01-31T14:41:17.574Z,93492.75
2019-01-31T14:43:48.992Z,93488.58
2019-01-31T14:46:20.546Z,93493.19
2019-01-31T14:48:52.095Z,93496.48
2019-01-31T14:51:23.644Z,93506.63
2019-01-31T14:53:55.255Z,93506.70
2019-01-31T14:56:26.665Z,93507.95
2019-01-31T14:58:58.396Z,93516.09
2019-01-31T15:01:29.907Z,93505.28
2019-01-31T15:04:01.380Z,93516.70
2019-01-31T15:06:32.837Z,93516.42
2019-01-31T15:09:08.742Z,93513.70
2019-01-31T15:11:40.031Z,93514.77
2019-01-31T15:14:11.593Z,93522.11
2019-01-31T15:16:43.014Z,93521.98
2019-01-31T15:19:17.138Z,93513.22
2019-01-31T15:21:48.519Z,93500.32
2019-01-31T15:24:19.974Z,93492.78
2019-01-31T15:26:52.431Z,93499.28
2019-01-31T15:29:25.492Z,93507.23
2019-01-31T15:31:56.991Z,93522.13
2019-01-31T15:34:28.455Z,93520.81
2019-01-31T15:37:02.078Z,93508.22
2019-01-31T15:39:33.071Z,93510.42
2019-01-31T15:42:04.480Z,93515.91
2019-01-31T15:44:43.071Z,93511.77
2019-01-31T15:47:09.198Z,93515.19
2019-01-31T15:49:40.642Z,93515.29
2019-01-31T15:52:12.041Z,93505.47
2019-01-31T15:54:43.703Z,93500.66
2019-01-31T15:57:16.718Z,93496.90
2019-01-31T15:59:48.483Z,93501.22
2019-01-31T16:02:21.405Z,93491.62
2019-01-31T16:04:54.618Z,93481.92
2019-01-31T16:07:26.062Z,93489.80
2019-01-31T16:09:57.470Z,93482.23
2019-01-31T16:12:28.862Z,93477.28
2019-01-31T16:15:00.551Z,93470.98
2019-01-31T16:17:32.068Z,93477.77
2019-01-31T16:20:03.527Z,93486.39
2019-01-31T16:22:34.947Z,93486.27
2019-01-31T16:25:06.759Z,93487.70
2019-01-31T16:27:38.228Z,93490.13
2019-01-31T16:30:12.281Z,93494.03
2019-01-31T16:32:43.768Z,93496.53
2019-01-31T16:35:15.730Z,93502.31
2019-01-31T16:37:50.538Z,93512.03
2019-01-31T16:40:22.088Z,93514.23
2019-01-31T16:42:53.507Z,93509.13
2019-01-31T16:45:25.037Z,93512.58
2019-01-31T16:47:56.593Z,93506.16
2019-01-31T16:50:28.102Z,93510.27
2019-01-31T16:52:59.455Z,93506.63
2019-01-31T16:55:30.974Z,93496.98
2019-01-31T16:58:02.490Z,93496.97
2019-01-31T17:00:35.439Z,93490.49
2019-01-31T17:03:07.973Z,93481.92
2019-01-31T17:05:39.450Z,93484.34
2019-01-31T17:08:11.243Z,93482.58
2019-01-31T17:10:42.705Z,93485.17
2019-01-31T17:13:14.192Z,93485.08
2019-01-31T17:15:45.648Z,93490.03
2019-01-31T17:18:17.147Z,93480.43
2019-01-31T17:20:48.795Z,93482.91
2019-01-31T17:23:21.331Z,93476.45
2019-01-31T17:25:52.849Z,93474.17
2019-01-31T17:28:24.396Z,93468.72
2019-01-31T17:30:55.934Z,93462.14
2019-01-31T17:33:27.423Z,93463.97
2019-01-31T17:35:58.922Z,93457.06
2019-01-31T17:38:33.019Z,93455.47
2019-01-31T17:41:03.542Z,93454.60
2019-01-31T17:43:34.967Z,93443.05
2019-01-31T17:46:08.075Z,93444.14
2019-01-31T17:48:39.519Z,93450.48
2019-01-31T17:51:12.614Z,93448.84
2019-01-31T17:53:45.041Z,93442.45
2019-01-31T17:56:16.546Z,93441.90
2019-01-31T17:58:47.993Z,93428.48
2019-01-31T18:01:19.492Z,93427.95
2019-01-31T18:03:50.951Z,93429.48
2019-01-31T18:06:22.419Z,93424.13
2019-01-31T18:08:53.857Z,93414.63
2019-01-31T18:11:25.389Z,93414.78
2019-01-31T18:13:56.827Z,93420.65
2019-01-31T18:16:28.380Z,93419.58
2019-01-31T18:18:59.833Z,93423.21
2019-01-31T18:21:31.261Z,93418.77
2019-01-31T18:24:02.846Z,93408.53
2019-01-31T18:26:34.295Z,93399.06
2019-01-31T18:29:05.859Z,93394.08
2019-01-31T18:31:37.341Z,93386.84
2019-01-31T18:34:08.775Z,93388.52
2019-01-31T18:36:40.245Z,93396.01
2019-01-31T18:39:12.185Z,93391.84
2019-01-31T18:41:43.711Z,93384.17
2019-01-31T18:44:16.329Z,93380.39
2019-01-31T18:46:47.803Z,93387.86
2019-01-31T18:49:19.237Z,93399.06
2019-01-31T18:51:51.760Z,93400.03
2019-01-31T18:54:23.152Z,93402.00
2019-01-31T18:56:54.669Z,93388.59
2019-01-31T18:59:26.151Z,93384.43
2019-01-31T19:01:57.636Z,93378.03
2019-01-31T19:04:29.076Z,93384.53
2019-01-31T19:07:00.544Z,93379.92
2019-01-31T19:09:32.053Z,93379.30
2019-01-31T19:12:03.507Z,93371.90
2019-01-31T19:14:36.515Z,93368.61
2019-01-31T19:17:07.968Z,93359.75
2019-01-31T19:19:39.498Z,93356.37
2019-01-31T19:22:12.041Z,93350.98
2019-01-31T19:24:43.918Z,93352.27
2019-01-31T19:27:15.361Z,93346.87
2019-01-31T19:29:47.088Z,93350.30
2019-01-31T19:32:18.598Z,93346.13
2019-01-31T19:34:50.053Z,93347.02
2019-01-31T19:37:21.525Z,93353.71
2019-01-31T19:39:53.044Z,93352.92
2019-01-31T19:42:24.606Z,93350.89
2019-01-31T19:44:56.268Z,93349.72
2019-01-31T19:47:27.697Z,93346.36
2019-01-31T19:49:59.150Z,93335.94
2019-01-31T19:52:30.592Z,93328.41
2019-01-31T19:55:02.101Z,93322.59
2019-01-31T19:57:33.626Z,93319.75
2019-01-31T20:00:07.109Z,93311.07
2019-01-31T20:02:39.551Z,93308.65
2019-01-31T20:05:11.561Z,93310.00
2019-01-31T20:07:43.349Z,93303.33
2019-01-31T20:10:20.907Z,93293.47
2019-01-31T20:12:52.429Z,93290.29
2019-01-31T20:15:23.959Z,93297.99
2019-01-31T20:17:55.425Z,93290.16
2019-01-31T20:20:28.107Z,93284.59
2019-01-31T20:23:00.173Z,93281.24
2019-01-31T20:25:31.994Z,93274.00
2019-01-31T20:28:03.569Z,93273.00
2019-01-31T20:30:36.643Z,93270.02
2019-01-31T20:33:08.218Z,93266.61
2019-01-31T20:35:39.997Z,93267.06
2019-01-31T20:38:14.303Z,93275.90
2019-01-31T20:40:45.911Z,93277.09
2019-01-31T20:43:17.648Z,93282.57
2019-01-31T20:45:49.173Z,93280.01
2019-01-31T20:48:23.087Z,93278.99
2019-01-31T20:50:56.288Z,93278.34
2019-01-31T20:53:27.735Z,93275.00
2019-01-31T20:55:59.177Z,93277.41
2019-01-31T20:58:30.734Z,93267.43
2019-01-31T21:01:02.172Z,93266.48
2019-01-31T21:03:36.080Z,93275.30
2019-01-31T21:06:07.607Z,93266.73
2019-01-31T21:08:39.111Z,93264.98
2019-01-31T21:11:10.555Z,93261.81
2019-01-31T21:13:42.019Z,93260.34
2019-01-31T21:16:14.503Z,93248.48
2019-01-31T21:18:45.951Z,93236.48
2019-01-31T21:21:17.360Z,93233.00
2019-01-31T21:23:48.831Z,93227.06
2019-01-31T21:26:20.267Z,93228.49
2019-01-31T21:28:51.707Z,93221.41
2019-01-31T21:31:23.153Z,93220.30
2019-01-31T21:33:54.623Z,93214.73
2019-01-31T21:36:26.099Z,93219.11
2019-01-31T21:38:57.541Z,93225.78
2019-01-31T21:41:28.969Z,93220.05
2019-01-31T21:44:00.403Z,93210.20
2019-01-31T21:46:31.817Z,93211.75
2019-01-31T21:49:03.308Z,93198.77
2019-01-31T21:51:34.748Z,93195.42
2019-01-31T21:54:08.360Z,93192.34
2019-01-31T21:56:39.440Z,93186.23
2019-01-31T21:59:10.894Z,93186.05
2019-01-31T22:01:42.304Z,93194.39
2019-01-31T22:04:13.894Z,93194.17
2019-01-31T22:06:45.316Z,93179.07
2019-01-31T22:09:16.806Z,93178.85
2019-01-31T22:11:48.240Z,93180.05
2019-01-31T22:14:19.681Z,93181.95
2019-01-31T22:16:51.113Z,93181.53
2019-01-31T22:19:22.539Z,93178.48
2019-01-31T22:21:53.952Z,93189.08
2019-01-31T22:24:25.404Z,93196.41
2019-01-31T22:26:56.839Z,93193.17
2019-01-31T22:29:28.283Z,93196.75
2019-01-31T22:31:59.659Z,93185.77
2019-01-31T22:34:32.316Z,93186.64
2019-01-31T22:37:03.727Z,93177.83
2019-01-31T22:39:35.126Z,93171.23
2019-01-31T22:42:06.564Z,93172.38
2019-01-31T22:44:38.091Z,93160.38
2019-01-31T22:47:09.498Z,93159.36
2019-01-31T22:49:40.948Z,93163.30
2019-01-31T22:52:12.373Z,93161.05
2019-01-31T22:54:43.815Z,93155.16
2019-01-31T22:57:15.238Z,93157.22
2019-01-31T22:59:46.784Z,93151.96
2019-01-31T23:02:18.183Z,93155.47
2019-01-31T23:04:49.703Z,93164.95
2019-01-31T23:07:21.126Z,93169.61
2019-01-31T23:09:52.602Z,93169.34
2019-01-31T23:12:24.062Z,93167.41
2019-01-31T23:14:55.492Z,93166.98
2019-01-31T23:17:36.682Z,93164.17
2019-01-31T23:20:00.088Z,93161.08
2019-01-31T23:22:31.550Z,93141.67
2019-01-31T23:25:02.998Z,93132.59
2019-01-31T23:27:34.415Z,93129.20
2019-01-31T23:30:07.959Z,93126.19
2019-01-31T23:32:39.449Z,93133.86
2019-01-31T23:35:11.117Z,93121.89
2019-01-31T23:37:42.540Z,93125.36
2019-01-31T23:40:14.005Z,93118.95
2019-01-31T23:42:45.933Z,93111.33
2019-01-31T23:45:17.287Z,93098.67
2019-01-31T23:47:49.354Z,93092.73
2019-01-31T23:50:20.837Z,93079.96
2019-01-31T23:52:54.615Z,93078.05
2019-01-31T23:55:26.108Z,93073.82
2019-01-31T23:57:57.536Z,93073.67
